Overseas Long Beach — WAAT — position and weather

sailwx.info

Track history (hours):
 
Tides and Currents Weather Stations Pressure Air Temp Water Temp Dewpoint Dewpoint Depression Visibility Wind Speed Wind Dir Waves Ship Positions

Overseas Long Beach

More information available from US FCC via Universal Licensing System and Coast Guard Vessel Documentation Center.

Last reported at 2014-Sep-01 17:33 UTC. Time now 2014-Sep-01 21:15 UTC.
Position N 25°33' W 079°60'.

Length 181 m; draft 7.8 m.

Type: Tanker. MMSI: 367703000.

Date/timePositionNaut miles runAvg speedWind from/ knotsBaromVisibWave heightAir tempDewpointWater temp
2014-Sep-01 17:33N 25°33' W 079°60'1212.0
2014-Sep-01 16:33N 25°45' W 079°59'1211.9
2014-Sep-01 15:33N 25°57' W 079°59'1211.9
2014-Sep-01 14:33N 26°09' W 079°58'1212.1
2014-Sep-01 13:33N 26°21' W 079°58'1212.2
2014-Sep-01 12:33N 26°33' W 079°57'1312.5
2014-Sep-01 11:33N 26°46' W 079°57'1313.3
2014-Sep-01 10:33N 26°59' W 079°57'  
2014-Aug-29 04:27N 27°04' W 079°51'1314.0
2014-Aug-29 03:33N 26°52' W 079°53'1313.5
2014-Aug-29 02:34N 26°38' W 079°54'1413.7
2014-Aug-29 01:33N 26°24' W 079°55'1413.7
2014-Aug-29 00:33N 26°11' W 079°55'1414.1
2014-Aug-28 23:33N 25°56' W 079°55'1914.3
2014-Aug-28 22:15N 25°38' W 079°55'  
Track history (hours):
 
Tides and Currents Weather Stations Pressure Air Temp Water Temp Dewpoint Dewpoint Depression Visibility Wind Speed Wind Dir Waves Ship Positions

Overseas Long Beach

More information available from US FCC via Universal Licensing System and Coast Guard Vessel Documentation Center.

Last reported at 2014-Sep-01 17:33 UTC. Time now 2014-Sep-01 21:15 UTC.
Position N 25°33' W 079°60'.

Length 181 m; draft 7.8 m.

Type: Tanker. MMSI: 367703000.

Date/timePositionNaut miles runAvg speedWind from/ knotsBaromVisibWave heightAir tempDewpointWater temp
2014-Sep-01 17:33N 25°33' W 079°60'1212.0
2014-Sep-01 16:33N 25°45' W 079°59'1211.9
2014-Sep-01 15:33N 25°57' W 079°59'1211.9
2014-Sep-01 14:33N 26°09' W 079°58'1212.1
2014-Sep-01 13:33N 26°21' W 079°58'1212.2
2014-Sep-01 12:33N 26°33' W 079°57'1312.5
2014-Sep-01 11:33N 26°46' W 079°57'1313.3
2014-Sep-01 10:33N 26°59' W 079°57'  
2014-Aug-29 04:27N 27°04' W 079°51'1314.0
2014-Aug-29 03:33N 26°52' W 079°53'1313.5
2014-Aug-29 02:34N 26°38' W 079°54'1413.7
2014-Aug-29 01:33N 26°24' W 079°55'1413.7
2014-Aug-29 00:33N 26°11' W 079°55'1414.1
2014-Aug-28 23:33N 25°56' W 079°55'1914.3
2014-Aug-28 22:15N 25°38' W 079°55'  

Dump ship's entire track history